Latest Weather Observations for Mount Wellington

IDT60801

Issued at 5:01 pm EST Saturday 29 August 2015 (issued every 30 minutes, with the page automatically refreshed every 10 minutes)

About weather observations | Map of weather stations | Latest weather observations for TAS | Other Formats
Station Details ID: 094087 Name: MOUNT WELLINGTON Lat: -42.90 Lon: 147.24 Height: 1260.47 m
Data from the previous 72 hours. | See also: Recent months at Mount Wellington
Date/Time
EST
Temp
°C
App
Temp
°C
Dew
Point
Rel
Hum
%
Delta-T
°C
Wind Press
QNH
hPa
Press
MSL
hPa
Rain
since 9 am
mm
Dir
 
Spd
km/h
Gust
km/h
Spd
kts
Gust
kts
29/05:00pm -1.1 -3.3 -1.5 97 0.1 CALM 0 0 0 0 - - 6.8
29/04:30pm -1.1 -3.3 -1.5 97 0.1 CALM 0 0 0 0 - - 6.8
29/04:00pm -1.1 -3.3 -1.5 97 0.1 CALM 0 0 0 0 - - 6.8
29/03:30pm -0.9 -3.1 -1.2 98 0.1 CALM 0 0 0 0 - - 6.8
29/03:00pm -0.8 -2.9 -1.1 98 0.1 CALM 0 0 0 0 - - 6.8
29/02:30pm -0.8 -2.9 -1.1 98 0.1 CALM 0 0 0 0 - - 6.8
29/02:00pm -0.6 -2.7 -0.9 98 0.1 CALM 0 0 0 0 - - 6.6
29/01:30pm -0.6 -2.7 -0.9 98 0.1 CALM 0 15 0 8 - - 5.8
29/01:00pm -0.5 -3.9 -0.8 98 0.1 SW 7 63 4 34 - - 5.2
29/12:30pm -0.4 -4.6 -0.7 98 0.1 SW 11 63 6 34 - - 4.8
29/12:00pm -0.4 -3.8 -0.7 98 0.1 SW 7 65 4 35 - - 3.6
29/11:30am -0.4 -4.6 -0.7 98 0.1 SW 11 76 6 41 - - 2.0
29/11:00am -0.3 -2.4 -0.6 98 0.1 CALM 0 0 0 0 - - 0.6
29/10:30am -0.4 -2.5 -0.7 98 0.1 CALM 0 0 0 0 - - 0.2
29/10:00am -0.3 -2.4 -0.6 98 0.1 CALM 0 0 0 0 - - 0.2
29/09:30am -0.2 -2.3 -0.5 98 0.1 CALM 0 0 0 0 - - 0.0
29/09:00am 0.0 -2.0 -0.3 98 0.1 CALM 0 0 0 0 - - 0.0
29/08:30am 0.0 -2.0 -0.3 98 0.1 CALM 0 0 0 0 - - 0.0
29/08:00am 0.0 -2.0 -0.3 98 0.1 CALM 0 0 0 0 - - 0.0
29/07:30am 0.0 -2.0 -0.3 98 0.1 CALM 0 0 0 0 - - 0.0
29/07:00am 0.0 -2.0 -0.3 98 0.1 CALM 0 7 0 4 - - 0.0
29/06:30am 0.0 -3.4 -0.3 98 0.1 SW 7 54 4 29 - - 0.0
29/06:00am 0.0 -2.8 -0.3 98 0.1 SW 4 35 2 19 - - 0.0
29/05:30am -0.1 -2.9 -0.4 98 0.1 SW 4 30 2 16 - - 0.0
29/05:00am -0.1 -2.9 -0.4 98 0.1 SW 4 33 2 18 - - 0.0
29/04:30am -0.1 -2.1 -0.4 98 0.1 CALM 0 0 0 0 - - 0.0
29/04:00am -0.4 -2.5 -0.8 97 0.1 CALM 0 0 0 0 - - 0.0
29/03:30am -0.7 -2.8 -1.1 97 0.1 CALM 0 0 0 0 - - 0.0
29/03:00am -0.8 -3.0 -1.2 97 0.1 CALM 0 0 0 0 - - 0.0
29/02:30am -1.2 -3.4 -1.6 97 0.1 CALM 0 0 0 0 - - 0.0
29/02:00am -1.6 -3.9 -2.2 96 0.1 CALM 0 0 0 0 - - 0.0
29/01:30am -2.3 -4.7 -2.8 96 0.1 CALM 0 0 0 0 - - 0.0
29/01:00am -2.4 -4.8 -2.9 96 0.1 CALM 0 0 0 0 - - 0.0
29/12:30am -2.9 -5.4 -3.6 95 0.1 CALM 0 0 0 0 - - 0.0
29/12:00am -3.3 -5.8 -4.0 95 0.1 CALM 0 0 0 0 - - 0.0
 
Date/Time
EST
Temp
°C
App
Temp
°C
Dew
Point
Rel
Hum
%
Delta-T
°C
Wind Press
QNH
hPa
Press
MSL
hPa
Rain
since 9 am
mm
Dir
 
Spd
km/h
Gust
km/h
Spd
kts
Gust
kts
28/11:30pm -3.2 -5.7 -3.9 95 0.1 CALM 0 0 0 0 - - 0.0
28/11:00pm -3.4 -5.9 -4.1 95 0.1 CALM 0 0 0 0 - - 0.0
28/10:30pm -3.5 -6.0 -4.2 95 0.1 CALM 0 0 0 0 - - 0.0
28/10:00pm -3.6 -6.1 -4.3 95 0.1 CALM 0 0 0 0 - - 0.0
28/09:30pm -4.1 -6.7 -4.9 94 0.1 CALM 0 0 0 0 - - 0.0
28/09:00pm -4.4 -7.0 -5.2 94 0.1 CALM 0 0 0 0 - - 0.0
28/08:30pm -4.5 -7.1 -5.3 94 0.1 CALM 0 0 0 0 - - 0.0
28/08:00pm -4.5 -7.1 -5.3 94 0.1 CALM 0 0 0 0 - - 0.0
28/07:30pm -4.7 -7.4 -5.5 94 0.1 CALM 0 0 0 0 - - 0.0
28/07:00pm -4.8 -7.5 -5.6 94 0.1 CALM 0 0 0 0 - - 0.0
28/06:30pm -4.8 -7.5 -5.6 94 0.1 CALM 0 0 0 0 - - 0.0
28/06:00pm -5.0 -7.7 -6.0 93 0.1 CALM 0 0 0 0 - - 0.0
28/05:30pm -4.8 -7.5 -5.6 94 0.1 CALM 0 0 0 0 - - 0.0
28/05:00pm -4.7 -7.4 -5.5 94 0.1 CALM 0 0 0 0 - - 0.0
28/04:30pm -4.6 -7.2 -5.4 94 0.1 CALM 0 0 0 0 - - 0.0
28/04:00pm -4.8 -7.5 -5.8 93 0.1 CALM 0 0 0 0 - - 0.0
28/03:30pm -4.3 -6.9 -5.1 94 0.1 CALM 0 0 0 0 - - 0.0
28/03:00pm -4.1 -6.7 -4.9 94 0.1 CALM 0 0 0 0 - - 0.0
28/02:30pm -4.1 -6.7 -4.9 94 0.1 CALM 0 0 0 0 - - 0.0
28/02:00pm -3.6 -6.1 -4.4 94 0.1 CALM 0 0 0 0 - - 0.0
28/01:30pm -3.8 -6.4 -4.6 94 0.1 CALM 0 0 0 0 - - 0.0
28/01:00pm -3.7 -6.2 -4.4 95 0.1 CALM 0 0 0 0 - - 0.0
28/12:30pm -3.4 -5.9 -4.1 95 0.1 CALM 0 0 0 0 - - 0.0
28/12:00pm -3.5 -6.0 -4.2 95 0.1 CALM 0 0 0 0 - - 0.0
28/11:30am -3.9 -6.5 -4.7 94 0.1 CALM 0 0 0 0 - - 0.0
28/11:00am -3.7 -6.3 -4.5 94 0.1 CALM 0 0 0 0 - - 0.0
28/10:30am -3.7 -6.3 -4.5 94 0.1 CALM 0 0 0 0 - - 0.0
28/10:00am -3.7 -6.3 -4.5 94 0.1 CALM 0 0 0 0 - - 0.0
28/09:30am -3.7 -6.2 -4.4 95 0.1 CALM 0 0 0 0 - - 0.0
28/09:00am -3.8 -6.4 -4.6 94 0.1 CALM 0 0 0 0 - - 0.2
28/08:30am -3.9 -6.5 -4.7 94 0.1 CALM 0 0 0 0 - - 0.2
28/08:00am -3.9 -6.5 -4.7 94 0.1 CALM 0 0 0 0 - - 0.2
28/07:30am -4.0 -6.6 -4.8 94 0.1 CALM 0 0 0 0 - - 0.2
28/07:00am -3.9 -6.5 -4.7 94 0.1 CALM 0 0 0 0 - - 0.2
28/06:30am -4.1 -6.7 -4.9 94 0.1 CALM 0 0 0 0 - - 0.2
28/06:00am -5.2 -7.9 -6.2 93 0.1 CALM 0 0 0 0 - - 0.2
28/05:30am -3.7 -6.2 -4.4 95 0.1 CALM 0 0 0 0 - - 0.2
28/05:00am -3.1 -5.6 -3.8 95 0.1 CALM 0 0 0 0 - - 0.2
28/04:30am -3.3 -5.8 -4.0 95 0.1 CALM 0 0 0 0 - - 0.2
28/04:00am -2.5 -4.9 -3.0 96 0.1 CALM 0 0 0 0 - - 0.2
28/03:30am -2.4 -4.8 -2.9 96 0.1 CALM 0 0 0 0 - - 0.2
28/03:00am -1.9 -4.2 -2.3 97 0.1 CALM 0 0 0 0 - - 0.2
28/02:30am -1.5 -3.7 -1.9 97 0.1 CALM 0 0 0 0 - - 0.2
28/02:00am -1.0 -3.2 -1.3 98 0.1 CALM 0 0 0 0 - - 0.2
28/01:30am -0.8 -2.9 -1.1 98 0.1 CALM 0 0 0 0 - - 0.2
28/01:00am -0.6 -2.7 -0.9 98 0.1 CALM 0 0 0 0 - - 0.2
28/12:30am -0.5 -2.6 -0.8 98 0.1 CALM 0 0 0 0 - - 0.2
28/12:00am -0.5 -2.6 -0.8 98 0.1 CALM 0 0 0 0 - - 0.2
 
Date/Time
EST
Temp
°C
App
Temp
°C
Dew
Point
Rel
Hum
%
Delta-T
°C
Wind Press
QNH
hPa
Press
MSL
hPa
Rain
since 9 am
mm
Dir
 
Spd
km/h
Gust
km/h
Spd
kts
Gust
kts
27/11:30pm -0.8 -2.9 -1.1 98 0.1 CALM 0 0 0 0 - - 0.2
27/11:00pm -0.8 -2.9 -1.1 98 0.1 CALM 0 0 0 0 - - 0.2
27/10:30pm -1.1 -3.3 -1.4 98 0.1 CALM 0 0 0 0 - - 0.2
27/10:00pm -0.9 -3.1 -1.2 98 0.1 CALM 0 0 0 0 - - 0.2
27/09:30pm -0.4 -2.5 -0.7 98 0.1 CALM 0 0 0 0 - - 0.2
27/09:00pm -0.3 -2.4 -0.6 98 0.1 CALM 0 0 0 0 - - 0.2
27/08:30pm -0.4 -7.0 -0.7 98 0.1 SW 24 32 13 17 - - 0.2
27/08:00pm 0.1 -6.1 -0.2 98 0.1 SW 22 28 12 15 - - 0.2
27/07:30pm 0.5 -5.3 0.2 98 0.1 SW 20 24 11 13 - - 0.2
27/07:00pm 0.7 -5.0 0.4 98 0.1 SW 20 22 11 12 - - 0.0
27/06:30pm 0.7 -4.5 0.3 97 0.2 SW 17 20 9 11 - - 0.0
27/06:00pm 0.6 -5.0 0.2 97 0.2 SW 19 22 10 12 - - 0.0
27/05:30pm 0.9 -4.2 0.5 97 0.2 SW 17 19 9 10 - - 0.0
27/05:00pm 1.1 -3.7 0.5 96 0.2 SW 15 17 8 9 - - 0.0
27/04:30pm 1.5 -2.9 0.5 93 0.4 SW 13 17 7 9 - - 0.0
27/04:00pm 2.0 -3.2 0.4 89 0.6 SW 17 19 9 10 - - 0.0
27/03:30pm 2.2 -2.9 0.6 89 0.7 SW 17 20 9 11 - - 0.0
27/03:00pm 2.5 -2.3 0.2 85 0.9 WSW 15 17 8 9 - - 0.0
27/02:30pm 2.9 -0.7 0.8 86 0.9 WSW 9 13 5 7 - - 0.0
27/02:00pm 3.0 -0.6 0.7 85 0.9 SW 9 13 5 7 - - 0.0
27/01:30pm 4.1 0.9 1.0 80 1.3 WSW 7 13 4 7 - - 0.0
27/01:00pm 3.1 -0.2 0.0 80 1.3 WSW 7 9 4 5 - - 0.0
27/12:30pm 2.5 0.2 0.4 86 0.9 N 2 6 1 3 - - 0.0
27/12:00pm 2.9 0.2 0.1 82 1.1 N 4 7 2 4 - - 0.0
27/11:30am 3.1 0.4 0.2 81 1.2 NW 4 6 2 3 - - 0.0
27/11:00am 3.7 0.9 -0.3 75 1.6 WSW 4 7 2 4 - - 0.0
27/10:30am 3.3 0.5 -0.5 76 1.5 WSW 4 7 2 4 - - 0.0
27/10:00am 3.1 0.7 -0.2 79 1.3 SSW 2 6 1 3 - - 0.0
27/09:30am 2.9 0.2 0.3 83 1.1 W 4 6 2 3 - - 0.0
27/09:00am 2.6 -0.1 0.0 83 1.1 NW 4 6 2 3 - - 0.0
27/08:30am 1.9 -1.3 -0.3 85 0.9 WNW 6 7 3 4 - - 0.0
27/08:00am 1.6 -1.6 -0.6 85 0.9 NW 6 7 3 4 - - 0.0
27/07:30am 1.4 -2.0 -0.8 85 0.9 WNW 7 9 4 5 - - 0.0
27/07:00am 1.1 -2.7 -0.8 87 0.7 WNW 9 9 5 5 - - 0.0
27/06:30am 1.0 -3.2 -0.9 87 0.7 NW 11 11 6 6 - - 0.0
27/06:00am 1.2 -2.6 -0.9 86 0.8 NW 9 11 5 6 - - 0.0
27/05:30am 1.4 -2.8 -0.8 85 0.9 NW 11 13 6 7 - - 0.0
27/05:00am 1.5 -3.4 -0.7 85 0.9 NNW 15 17 8 9 - - 0.0
27/04:30am 1.4 -4.3 -0.8 85 0.9 NW 19 22 10 12 - - 0.0
27/04:00am 1.4 -4.9 -1.0 84 0.9 NW 22 26 12 14 - - 0.0
27/03:30am 1.3 -5.4 -1.3 83 1.0 NW 24 28 13 15 - - 0.0
27/03:00am 1.3 -5.8 -1.4 82 1.0 NNW 26 32 14 17 - - 0.0
27/02:30am 1.1 -5.7 -1.5 83 1.0 NNW 24 28 13 15 - - 0.0
27/02:00am 1.1 -6.0 -1.5 83 1.0 NNW 26 32 14 17 - - 0.0
27/01:30am 1.0 -6.5 -1.6 83 1.0 NNW 28 33 15 18 - - 0.0
27/01:00am 1.1 -6.8 -1.8 81 1.1 NNW 30 35 16 19 - - 0.0
27/12:30am 1.0 -7.4 -2.1 80 1.2 NNW 32 39 17 21 - - 0.0
27/12:00am 0.9 -7.4 -1.8 82 1.1 NNW 32 39 17 21 - - 0.0
 
Date/Time
EST
Temp
°C
App
Temp
°C
Dew
Point
Rel
Hum
%
Delta-T
°C
Wind Press
QNH
hPa
Press
MSL
hPa
Rain
since 9 am
mm
Dir
 
Spd
km/h
Gust
km/h
Spd
kts
Gust
kts
26/11:30pm 1.1 -7.1 -1.3 84 0.9 NNW 32 37 17 20 - - 0.0
26/11:00pm 1.0 -6.1 -1.1 86 0.8 NNW 26 33 14 18 - - 0.0
26/10:30pm 0.8 -4.9 -0.6 90 0.5 NW 19 22 10 12 - - 0.0
26/10:00pm 0.8 -4.5 -0.3 92 0.4 NW 17 22 9 12 - - 0.0
26/09:30pm 1.2 -3.7 -0.4 89 0.6 NNW 15 19 8 10 - - 0.0
26/09:00pm 1.0 -3.1 0.0 93 0.4 N 11 13 6 7 - - 0.0
26/08:30pm 1.3 -2.8 -0.5 88 0.7 N 11 15 6 8 - - 0.0
26/08:00pm 1.6 -2.5 -0.2 88 0.7 N 11 15 6 8 - - 0.0
26/07:30pm 1.5 -3.0 -0.6 86 0.8 N 13 17 7 9 - - 0.0
26/07:00pm 1.9 -2.7 -0.8 82 1.1 N 13 17 7 9 - - 0.0
26/06:30pm 2.0 -1.8 -0.4 84 1.0 N 9 11 5 6 - - 0.0
26/06:00pm 2.3 -1.4 -0.1 84 1.0 N 9 13 5 7 - - 0.0
26/05:30pm 2.6 -1.1 -0.3 81 1.2 N 9 9 5 5 - - 0.0

Other Formats:

Comma delimited format used in spreadsheet applications
http://www.bom.gov.au/fwo/IDT60801/IDT60801.95979.axf

JavaScript Object Notation format (JSON) in row-major order
http://www.bom.gov.au/fwo/IDT60801/IDT60801.95979.json